KCMD

Cullman Regional-Folsom Field Airport

Cullman, Alabama, USA
METAR KCMD 231615Z AUTO 20010KT 10SM SCT035 23/14 A3039 RMK AO2 T02310139
Observed Flight Rules
Feb-23 @ 16:15 UTC (24 minutes ago) Visual Flight Rules
Wind Visibility Clouds
200° at 10 knots 10 miles
  • Scattered at 3,500' AGL
Temperatures Readings
Current 23°C / 73°F
Dewpoint 14°C / 57°F
Humidity 57%
Altimeter 30.39" Hg
Pressure 1029 hPa
Elevation 294
METAR KCMD 231615Z AUTO 20010KT 10SM SCT035 23/14 A3039 RMK AO2 T02310139
Observed Flight Rules
Feb-23 @ 16:15 UTC
(24 minutes ago)
VFR
Wind Visibility
200° at 10 knots 10 miles
Clouds
  • Scattered at 3,500' AGL
Temperature Dewpoint
23°C / 73°F 14°C / 57°F
Humidity Altimeter Pressure
57% 30.39" Hg 1029 hPa